Hauptseite
METAR-TAF:

METAR-TAF

Flughäfen :

Clyde, Nunavut, Kanada

Breite: 70-29N, Länge: 068-31W, Höhe: 25 m

Beobachtung

Neuester Wetterbericht von vor 16 Minuten, um 19:00 UTC
Wind 9 kt aus Südost
Temperatur 13°C
Luftfeuchtigkeit 58%
Luftdruck 1000 hPa
Sichtweite: 40.2 km
Leicht bewölkt in der Höhe von 25000 ft

METAR: CYCY 191900Z 14009KT 25SM FEW250 13/05 A2953 RMK CI1 CI TR 14.0/3.3/NIL/LAST STFD OB/NEXT 201300Z SLP003 DENSITY ALT 400FT

Zeit: 15:16 (19:16 UTC)

Prognose

Neuester Wetterbericht von vor 38 Minuten, um 18:38 UTC
Gültige Prognose vom 19 um 19 UTC bis 20 um 07 UTC
Wind 8 kt aus Ost/Südost
Sichtweite: 10 km
Himmel klar

TAF: CYCY 191838Z 1919/2007 12008KT P6SM SKC RMK NXT FCST BY 200100Z

Wetterbeobachtungen und Prognosen von mehr als 4000 Flughäfen (METAR und TAF Bericht).

Die verfügbaren Stationen werden durch gelbe und rote Markierungen auf der Karte dargestellt.

Führen Sie die Maus auf sie, um den Namen der Station zu sehen.

Darauf klicken, um die Beobachtung von Wetterbeobachtungen und Prognosen zu sehen.

Um die Karte zu ändern : klicken Sie auf den grünen Tasten mit einem schwarzen Kreuz Zum Vergrößern, auf den grünen Button mit einem Gedankenstrich zu verkleinern, oder auf die grünen Pfeile für benachbarte Karten.


METAR-TAF: